Time;durP1;ratioP1;P1;durP2;ratioP2;P2;SDS_P1;SDS_P2;PMS_P1;PMS_P2;Temp;Humidity;BMP_temperature;BMP_pressure;BME280_temperature;BME280_humidity;BME280_pressure;Samples;Min_cycle;Max_cycle;Signal;HPM_P1;HPM_P2
2022/06/10 00:01:02;;;;;;;11.63;10.10;;;;;;;21.16;78.56;99273.00;5013407;28;20506;-65
2022/06/10 00:03:29;;;;;;;11.70;9.90;;;;;;;21.19;78.76;99280.66;5013445;28;20483;-65
2022/06/10 00:05:57;;;;;;;11.40;10.00;;;;;;;21.11;78.85;99260.16;5013025;28;20054;-65
2022/06/10 00:08:26;;;;;;;11.07;9.68;;;;;;;20.89;79.18;99225.81;5013252;28;20045;-64
2022/06/10 00:10:52;;;;;;;11.77;10.27;;;;;;;21.19;78.93;99276.25;5013625;28;20092;-62
2022/06/10 00:13:21;;;;;;;14.07;10.00;;;;;;;21.21;78.82;99289.31;5011530;28;20030;-62
2022/06/10 00:15:48;;;;;;;12.95;9.82;;;;;;;21.12;78.25;99264.50;5011589;28;20029;-62
2022/06/10 00:18:15;;;;;;;13.35;10.43;;;;;;;21.20;77.66;99283.19;5013353;28;20062;-63
2022/06/10 00:20:41;;;;;;;16.45;10.73;;;;;;;21.16;78.37;99276.50;5013012;28;20476;-62
2022/06/10 00:23:07;;;;;;;14.27;10.73;;;;;;;21.18;77.89;99279.84;5013198;28;20025;-61
2022/06/10 00:25:33;;;;;;;15.23;9.93;;;;;;;21.18;78.27;99285.09;5011910;28;20029;-63
2022/06/10 00:27:58;;;;;;;13.10;9.93;;;;;;;21.19;78.26;99294.69;5010676;28;20034;-63
2022/06/10 00:30:28;;;;;;;15.90;11.38;;;;;;;20.87;78.57;99244.34;5012063;28;20395;-64
2022/06/10 00:32:55;;;;;;;15.32;10.65;;;;;;;21.17;78.75;99287.84;5008803;28;20475;-64
2022/06/10 00:35:21;;;;;;;13.85;10.00;;;;;;;21.11;79.43;99288.31;5011804;28;20029;-63
2022/06/10 00:37:46;;;;;;;16.58;10.70;;;;;;;21.07;79.03;99285.03;5011830;28;20730;-64
2022/06/10 00:40:17;;;;;;;15.10;11.13;;;;;;;20.86;79.37;99243.50;5012326;28;20029;-64
2022/06/10 00:42:43;;;;;;;17.93;10.10;;;;;;;21.12;79.22;99292.59;5010768;28;20030;-65
2022/06/10 00:45:47;;;;;;;13.90;10.15;;;;;;;21.15;80.00;99303.78;5011225;28;20475;-65
2022/06/10 00:48:17;;;;;;;15.90;10.60;;;;;;;21.15;79.48;99301.13;5009169;28;20030;-62
2022/06/10 00:50:45;;;;;;;16.90;10.18;;;;;;;21.15;79.15;99303.78;5012475;28;20049;-63
2022/06/10 00:53:14;;;;;;;16.42;10.23;;;;;;;20.93;78.74;99259.69;5010354;28;20029;-64
2022/06/10 00:55:43;;;;;;;13.68;10.88;;;;;;;20.86;79.24;99251.41;4992421;28;20050;-64
2022/06/10 00:58:18;;;;;;;14.05;10.45;;;;;;;21.17;79.95;99307.13;4992660;28;20033;-64
2022/06/10 01:00:45;;;;;;;15.40;9.90;;;;;;;21.15;79.70;99309.03;5008607;28;20030;-63
2022/06/10 01:03:11;;;;;;;17.10;10.57;;;;;;;21.16;78.68;99308.09;5009906;28;20030;-63
2022/06/10 01:05:36;;;;;;;20.90;10.80;;;;;;;21.17;78.35;99314.19;5010650;28;20487;-63
2022/06/10 01:08:13;;;;;;;16.95;10.18;;;;;;;20.88;78.27;99280.25;5009681;28;20398;-63
2022/06/10 01:10:53;;;;;;;17.15;10.68;;;;;;;21.18;78.04;99345.69;5011171;28;20153;-64
2022/06/10 01:13:33;;;;;;;14.38;10.45;;;;;;;21.19;77.80;99338.63;4991162;28;20535;-64
2022/06/10 01:16:18;;;;;;;12.48;10.57;;;;;;;21.10;77.66;99334.84;5009650;28;20059;-64
2022/06/10 01:19:04;;;;;;;18.80;10.55;;;;;;;20.95;78.20;99306.97;5011594;28;20033;-63
2022/06/10 01:21:48;;;;;;;22.80;12.35;;;;;;;21.20;77.42;99351.66;5011090;28;20112;-64
2022/06/10 01:24:26;;;;;;;20.13;11.85;;;;;;;21.15;77.24;99340.63;5012177;28;20072;-63
2022/06/10 01:30:03;;;;;;;24.40;11.52;;;;;;;21.26;75.86;99354.84;5012243;28;20459;-63
2022/06/10 01:32:42;;;;;;;17.65;11.07;;;;;;;20.95;75.15;99317.50;5012493;28;20034;-62
2022/06/10 01:35:32;;;;;;;19.10;11.20;;;;;;;21.19;76.59;99373.72;5012041;28;20103;-63
2022/06/10 01:38:39;;;;;;;12.38;10.07;;;;;;;21.16;76.08;99363.41;5011958;28;20034;-63
2022/06/10 01:41:19;;;;;;;10.98;8.63;;;;;;;20.83;75.87;99322.66;4978963;28;20034;-64
2022/06/10 01:44:04;;;;;;;13.25;9.75;;;;;;;20.72;77.61;99293.63;5011862;28;20037;-64
2022/06/10 01:46:38;;;;;;;13.30;10.23;;;;;;;21.01;78.87;99346.03;5011538;28;20041;-64
2022/06/10 01:49:20;;;;;;;12.00;10.45;;;;;;;21.01;79.46;99348.69;5011013;28;20038;-65
2022/06/10 01:51:53;;;;;;;;;;;;;;;20.93;81.00;99340.47;5009980;28;20026;-66
2022/06/10 01:54:31;;;;;;;13.27;9.80;;;;;;;20.80;81.35;99343.94;5001756;28;19933;-64
2022/06/10 01:57:03;;;;;;;11.63;10.43;;;;;;;20.72;81.16;99341.00;5008750;28;20025;-64
2022/06/10 01:59:52;;;;;;;12.40;9.70;;;;;;;20.37;82.06;99289.00;5011428;28;20029;-64
2022/06/10 02:02:29;;;;;;;12.75;10.45;;;;;;;20.31;82.05;99295.53;5010984;28;20033;-65
2022/06/10 02:05:00;;;;;;;13.70;10.75;;;;;;;20.57;82.11;99336.78;5011029;28;20573;-64
2022/06/10 02:07:31;;;;;;;13.93;10.68;;;;;;;20.31;81.98;99302.59;5011499;28;20494;-66
2022/06/10 02:10:15;;;;;;;13.90;10.65;;;;;;;20.29;82.52;99291.31;5009842;28;20458;-65
2022/06/10 02:12:47;;;;;;;19.42;10.98;;;;;;;20.58;82.71;99328.78;5011076;28;20022;-65
2022/06/10 02:15:16;;;;;;;;;;;;;;;20.64;84.75;99338.88;5011903;28;20057;-65
2022/06/10 02:17:58;;;;;;;12.75;10.75;;;;;;;20.61;83.77;99344.34;5011482;28;20055;-66
2022/06/10 02:20:29;;;;;;;13.13;11.10;;;;;;;20.49;83.92;99338.16;5011011;28;20036;-62
2022/06/10 02:22:58;;;;;;;11.95;10.50;;;;;;;20.50;84.50;99352.16;5014414;28;20113;-63
2022/06/10 02:25:30;;;;;;;12.02;10.77;;;;;;;20.56;84.07;99362.25;5015193;28;20026;-63
2022/06/10 02:28:00;;;;;;;13.48;11.75;;;;;;;20.50;84.65;99339.81;5014011;28;20566;-63
2022/06/10 02:30:30;;;;;;;15.45;13.77;;;;;;;20.40;84.00;99317.72;5013563;28;20092;-63
2022/06/10 02:32:57;;;;;;;13.57;11.68;;;;;;;20.69;84.35;99357.88;5014090;28;20060;-63
2022/06/10 02:35:27;;;;;;;13.00;11.60;;;;;;;20.77;84.16;99354.69;5014279;28;20026;-63
2022/06/10 02:38:31;;;;;;;13.30;11.77;;;;;;;20.88;84.19;99368.91;5014027;28;20022;-63
2022/06/10 02:41:20;;;;;;;13.05;11.75;;;;;;;20.89;84.04;99360.88;5005249;28;20562;-63
2022/06/10 02:44:02;;;;;;;15.25;11.48;;;;;;;20.98;83.52;99365.53;5010130;28;20041;-63
2022/06/10 02:46:43;;;;;;;13.63;12.13;;;;;;;21.03;83.69;99375.72;5014269;28;20044;-62
2022/06/10 02:49:16;;;;;;;14.07;12.02;;;;;;;20.77;83.59;99302.06;5013984;28;20040;-62
2022/06/10 02:51:42;;;;;;;11.95;10.75;;;;;;;21.11;83.82;99354.16;5014239;28;20127;-62
2022/06/10 02:54:17;;;;;;;11.95;10.55;;;;;;;20.79;82.97;99305.44;5014009;28;20030;-63
2022/06/10 02:56:43;;;;;;;12.52;11.23;;;;;;;21.02;83.04;99351.19;5013921;28;20479;-63
2022/06/10 03:02:14;;;;;;;12.70;10.77;;;;;;;20.66;82.19;99300.16;5001005;28;20037;-64
2022/06/10 03:05:01;;;;;;;13.85;10.80;;;;;;;21.02;82.02;99347.72;5013263;28;20545;-64
2022/06/10 03:07:34;;;;;;;12.13;10.95;;;;;;;21.07;81.24;99344.78;5014028;28;20042;-63
2022/06/10 03:10:09;;;;;;;13.57;10.57;;;;;;;21.06;81.64;99349.19;5013972;28;20018;-62
2022/06/10 03:13:13;;;;;;;12.45;11.15;;;;;;;20.97;81.51;99331.41;5013822;28;20033;-63
2022/06/10 03:15:58;;;;;;;10.40;9.32;;;;;;;21.13;81.22;99350.44;4992084;28;20396;-62
2022/06/10 03:18:39;;;;;;;10.98;9.65;;;;;;;20.98;80.67;99309.41;5014127;28;20057;-63
2022/06/10 03:21:07;;;;;;;11.88;9.60;;;;;;;21.32;80.15;99354.38;5013778;28;20022;-64
2022/06/10 03:23:55;;;;;;;11.10;9.57;;;;;;;21.38;79.81;99353.97;5013665;28;20083;-64
2022/06/10 03:27:01;;;;;;;13.63;9.63;;;;;;;21.44;78.63;99350.88;5013914;28;20028;-65
2022/06/10 03:29:36;;;;;;;10.57;9.38;;;;;;;21.44;79.23;99356.16;5001076;28;20041;-63
2022/06/10 03:32:15;;;;;;;10.50;9.40;;;;;;;21.52;78.28;99356.47;5013497;28;20034;-63
2022/06/10 03:34:45;;;;;;;10.65;9.52;;;;;;;21.47;79.12;99369.09;5013467;28;20030;-63
2022/06/10 03:37:13;;;;;;;10.35;9.30;;;;;;;21.58;78.41;99365.72;5013853;28;20471;-63
2022/06/10 03:39:41;;;;;;;10.23;9.20;;;;;;;21.64;78.81;99362.63;5013165;28;20104;-63
2022/06/10 03:42:09;;;;;;;10.52;8.77;;;;;;;21.59;78.41;99364.78;5013189;28;20070;-63
2022/06/10 03:44:36;;;;;;;9.63;8.73;;;;;;;21.62;77.63;99366.34;5013074;28;20022;-63
2022/06/10 03:47:05;;;;;;;10.07;9.07;;;;;;;21.76;76.39;99373.25;5013122;28;20038;-63
2022/06/10 03:49:45;;;;;;;10.50;8.82;;;;;;;21.69;76.99;99335.94;5011858;28;20129;-64
2022/06/10 03:52:20;;;;;;;10.13;9.13;;;;;;;21.80;76.79;99354.44;5013580;28;20426;-63
2022/06/10 03:54:45;;;;;;;11.02;9.13;;;;;;;21.94;77.10;99368.41;5000125;28;20034;-64
2022/06/10 03:57:11;;;;;;;10.85;9.18;;;;;;;22.03;75.61;99365.94;5002992;28;20092;-63
2022/06/10 03:59:37;;;;;;;9.52;8.63;;;;;;;22.16;74.29;99365.00;5012916;28;20030;-64
2022/06/10 04:02:03;;;;;;;10.70;9.05;;;;;;;22.02;73.42;99364.25;5012577;28;20044;-63
2022/06/10 04:04:28;;;;;;;10.27;8.60;;;;;;;22.19;72.93;99381.47;5012681;28;20479;-63
2022/06/10 04:06:54;;;;;;;9.93;8.93;;;;;;;22.16;72.25;99368.50;5008386;28;20041;-63
2022/06/10 04:09:19;;;;;;;8.90;8.10;;;;;;;22.25;72.01;99369.59;5005017;28;20022;-63
2022/06/10 04:11:46;;;;;;;9.90;8.90;;;;;;;22.22;71.29;99361.94;5012547;28;20049;-63
2022/06/10 04:14:12;;;;;;;9.55;8.50;;;;;;;22.36;71.18;99371.44;5012685;28;20407;-62
2022/06/10 04:16:37;;;;;;;9.38;8.50;;;;;;;22.31;73.00;99363.84;5011262;28;20402;-62
2022/06/10 04:19:03;;;;;;;9.27;8.32;;;;;;;22.30;73.19;99366.63;5012050;28;20076;-65
2022/06/10 04:21:29;;;;;;;8.90;8.05;;;;;;;22.34;73.17;99374.22;5012342;28;20116;-65
2022/06/10 04:23:54;;;;;;;9.00;8.10;;;;;;;22.35;73.10;99373.25;5011049;28;20053;-65
2022/06/10 04:26:20;;;;;;;9.20;8.30;;;;;;;22.41;73.26;99380.69;5007669;28;20026;-65
2022/06/10 04:28:46;;;;;;;9.23;8.45;;;;;;;22.52;72.89;99384.34;4992913;28;20022;-65
2022/06/10 04:31:11;;;;;;;9.07;8.27;;;;;;;22.50;72.90;99380.97;5011445;28;20034;-65
2022/06/10 04:33:37;;;;;;;9.13;8.23;;;;;;;22.56;71.58;99385.75;5012014;28;20040;-65
2022/06/10 04:36:03;;;;;;;9.63;8.73;;;;;;;22.55;72.34;99371.75;5012223;28;20025;-64
2022/06/10 04:38:29;;;;;;;9.98;9.07;;;;;;;22.64;72.41;99380.75;5012079;28;20029;-64
2022/06/10 04:40:54;;;;;;;10.75;9.05;;;;;;;22.72;72.27;99381.00;5012130;28;20038;-64
2022/06/10 04:43:20;;;;;;;8.98;8.15;;;;;;;22.68;72.20;99365.53;5010926;28;20103;-64
2022/06/10 04:45:50;;;;;;;9.82;8.82;;;;;;;22.73;72.26;99363.34;5011500;28;20042;-64
2022/06/10 04:48:16;;;;;;;10.73;9.70;;;;;;;22.81;71.14;99382.09;5012067;28;20025;-65
2022/06/10 04:50:43;;;;;;;9.88;8.88;;;;;;;22.96;70.83;99379.22;5011640;28;20033;-64
2022/06/10 04:53:09;;;;;;;10.32;9.32;;;;;;;22.90;69.96;99381.38;5012136;28;20141;-64
2022/06/10 04:55:35;;;;;;;10.40;9.43;;;;;;;23.00;70.62;99381.53;5010321;28;20128;-64
2022/06/10 04:58:01;;;;;;;11.05;9.85;;;;;;;23.12;70.50;99377.09;5011786;28;20030;-66
2022/06/10 05:00:30;;;;;;;10.05;9.15;;;;;;;23.15;69.69;99373.38;5011452;28;20033;-64
2022/06/10 05:02:56;;;;;;;9.55;8.75;;;;;;;23.23;69.14;99374.44;5010343;28;20034;-63
2022/06/10 05:05:23;;;;;;;10.82;8.98;;;;;;;23.19;68.47;99367.72;5010181;28;20057;-64
2022/06/10 05:07:49;;;;;;;10.52;9.52;;;;;;;23.31;67.77;99373.00;5010536;28;20026;-63
2022/06/10 05:10:16;;;;;;;10.05;9.25;;;;;;;23.39;68.05;99366.13;5011680;28;20053;-63
2022/06/10 05:12:44;;;;;;;12.73;9.55;;;;;;;23.50;67.67;99378.50;5011379;28;20112;-62
2022/06/10 05:15:12;;;;;;;9.93;8.93;;;;;;;23.66;67.50;99388.66;5011264;28;20030;-63
2022/06/10 05:17:38;;;;;;;9.35;8.52;;;;;;;23.70;66.59;99394.53;5011774;28;20069;-63
2022/06/10 05:20:04;;;;;;;9.63;8.63;;;;;;;23.86;65.57;99394.97;5009124;28;20050;-63
2022/06/10 05:22:30;;;;;;;9.02;8.32;;;;;;;24.04;64.78;99394.44;5007456;28;20019;-62
2022/06/10 05:24:56;;;;;;;11.32;9.70;;;;;;;24.10;65.03;99399.25;4991908;28;20137;-61
2022/06/10 05:27:21;;;;;;;10.75;9.77;;;;;;;24.08;64.61;99401.19;5003411;28;20041;-64
2022/06/10 05:29:47;;;;;;;10.35;9.30;;;;;;;24.11;65.18;99395.63;5011057;28;20056;-65
2022/06/10 05:32:13;;;;;;;10.13;9.23;;;;;;;24.21;65.13;99403.66;5011116;28;20415;-63
2022/06/10 05:34:45;;;;;;;12.02;9.43;;;;;;;24.33;64.61;99399.13;5011938;28;20061;-64
2022/06/10 05:37:20;;;;;;;9.57;8.77;;;;;;;24.35;63.45;99399.84;5010780;28;20064;-65
2022/06/10 05:39:46;;;;;;;9.60;8.77;;;;;;;24.33;64.36;99396.47;5011722;28;20479;-65
2022/06/10 05:42:12;;;;;;;10.85;9.85;;;;;;;24.40;63.74;99397.63;5012122;28;20095;-65
2022/06/10 05:44:41;;;;;;;10.10;9.27;;;;;;;24.50;63.19;99409.16;5009066;28;20112;-64
2022/06/10 05:47:14;;;;;;;10.32;9.43;;;;;;;24.43;63.57;99397.41;5007592;28;20030;-64
2022/06/10 05:49:43;;;;;;;9.40;8.60;;;;;;;24.19;62.82;99369.38;5009814;28;20041;-62
2022/06/10 05:52:13;;;;;;;10.40;9.40;;;;;;;24.15;62.95;99361.81;5009212;28;20036;-63
2022/06/10 05:54:41;;;;;;;9.23;8.35;;;;;;;24.42;62.23;99401.03;5003928;28;20080;-63
2022/06/10 05:57:08;;;;;;;9.02;8.23;;;;;;;24.35;62.61;99403.31;5010811;28;20034;-64
2022/06/10 05:59:34;;;;;;;9.55;8.57;;;;;;;24.35;62.79;99400.69;5013442;28;20021;-64
2022/06/10 06:02:03;;;;;;;9.77;8.77;;;;;;;24.51;63.06;99404.69;5015089;28;20036;-63
2022/06/10 06:04:29;;;;;;;12.32;9.30;;;;;;;24.61;61.68;99406.47;5013265;28;20026;-63
2022/06/10 06:06:55;;;;;;;10.30;9.20;;;;;;;24.74;62.04;99400.13;5014902;28;20037;-63
2022/06/10 06:09:22;;;;;;;10.07;8.93;;;;;;;24.84;62.30;99392.22;5015137;28;20022;-64
2022/06/10 06:11:50;;;;;;;10.57;9.63;;;;;;;24.98;62.19;99387.44;5014570;28;20129;-63
2022/06/10 06:14:18;;;;;;;10.07;9.18;;;;;;;24.98;60.32;99392.72;5014660;28;20434;-63
2022/06/10 06:16:53;;;;;;;11.20;9.02;;;;;;;25.05;59.29;99408.09;5024513;28;20029;-62
2022/06/10 06:19:19;;;;;;;10.43;9.43;;;;;;;24.99;60.75;99402.34;5014748;28;20049;-64
2022/06/10 06:21:45;;;;;;;10.50;9.50;;;;;;;25.02;61.09;99408.34;5014445;28;20080;-65
2022/06/10 06:24:10;;;;;;;10.70;9.70;;;;;;;24.96;62.05;99410.56;5014582;28;20043;-63
2022/06/10 06:26:36;;;;;;;10.55;9.45;;;;;;;24.90;59.72;99411.09;5014325;28;20046;-64
2022/06/10 06:29:02;;;;;;;9.63;8.73;;;;;;;25.00;59.47;99408.50;5014483;28;20069;-64
2022/06/10 06:31:27;;;;;;;11.00;8.55;;;;;;;25.10;59.19;99404.06;5014506;28;20480;-63
2022/06/10 06:33:53;;;;;;;9.80;9.05;;;;;;;25.01;59.95;99394.25;5013794;28;20479;-61
2022/06/10 06:36:23;;;;;;;9.65;8.63;;;;;;;25.15;59.70;99403.66;5014749;28;20030;-62
2022/06/10 06:38:49;;;;;;;9.63;8.50;;;;;;;25.03;60.47;99405.56;5014247;28;20025;-63
2022/06/10 06:41:16;;;;;;;10.38;9.40;;;;;;;25.01;59.63;99404.03;5015388;28;20022;-62
2022/06/10 06:43:42;;;;;;;10.23;9.25;;;;;;;25.12;60.02;99403.94;5014999;28;20022;-64
2022/06/10 06:46:12;;;;;;;10.25;9.35;;;;;;;24.92;59.40;99377.34;5015039;28;20030;-63
2022/06/10 06:48:37;;;;;;;9.55;8.75;;;;;;;25.04;60.10;99396.66;5015442;28;20033;-63
2022/06/10 06:51:03;;;;;;;9.90;9.00;;;;;;;25.18;58.78;99398.09;5015389;28;20026;-62
2022/06/10 06:53:29;;;;;;;11.18;9.95;;;;;;;25.21;58.53;99400.50;5013099;28;20030;-63
2022/06/10 06:55:54;;;;;;;9.63;8.73;;;;;;;25.36;58.39;99392.19;5007754;28;20113;-63
2022/06/10 06:58:20;;;;;;;10.60;9.68;;;;;;;25.41;58.33;99390.81;5029902;28;20471;-63
2022/06/10 07:00:47;;;;;;;9.82;8.70;;;;;;;25.38;56.63;99380.44;5020756;28;20026;-62
2022/06/10 07:03:12;;;;;;;9.13;8.32;;;;;;;25.49;56.32;99385.66;5014428;28;20040;-62
2022/06/10 07:05:38;;;;;;;13.52;9.25;;;;;;;25.77;55.90;99392.97;5014785;28;20474;-65
2022/06/10 07:08:04;;;;;;;9.43;8.63;;;;;;;25.68;56.25;99384.00;5014293;28;20505;-63
2022/06/10 07:10:30;;;;;;;9.77;8.82;;;;;;;25.73;56.07;99392.41;5012055;28;20057;-62
2022/06/10 07:12:56;;;;;;;10.02;9.23;;;;;;;25.82;55.23;99396.03;5014515;28;20033;-62
2022/06/10 07:15:22;;;;;;;10.13;9.10;;;;;;;25.76;55.27;99383.34;5011955;28;20247;-61
2022/06/10 07:17:48;;;;;;;12.52;9.07;;;;;;;25.94;55.95;99392.28;5011890;28;20026;-63
2022/06/10 07:20:25;;;;;;;10.50;9.48;;;;;;;25.67;56.46;99359.31;5011365;28;20033;-65
2022/06/10 07:22:50;;;;;;;10.20;9.20;;;;;;;25.86;56.16;99397.44;5013761;28;20052;-64
2022/06/10 07:25:16;;;;;;;10.65;9.65;;;;;;;25.82;55.23;99393.38;5013112;28;20053;-64
2022/06/10 07:27:43;;;;;;;9.82;9.02;;;;;;;25.86;56.74;99391.31;5011652;28;20124;-62
2022/06/10 07:30:10;;;;;;;13.10;10.77;;;;;;;25.89;56.49;99369.78;5010388;28;20037;-63
2022/06/10 07:32:36;;;;;;;9.52;8.52;;;;;;;25.88;56.72;99397.28;5007850;28;20037;-61
2022/06/10 07:35:02;;;;;;;10.15;9.15;;;;;;;25.64;55.05;99391.41;5014283;28;20030;-62
2022/06/10 07:37:28;;;;;;;10.02;9.00;;;;;;;25.68;55.00;99405.22;5013638;28;20040;-64
2022/06/10 07:39:54;;;;;;;9.57;8.68;;;;;;;25.58;55.05;99389.31;5014109;28;20030;-66
2022/06/10 07:42:20;;;;;;;25.48;12.80;;;;;;;25.48;56.19;99397.25;5014273;28;20026;-62
2022/06/10 07:44:45;;;;;;;10.10;9.07;;;;;;;25.45;55.51;99394.03;5014321;28;20022;-62
2022/06/10 07:47:13;;;;;;;11.57;8.82;;;;;;;25.29;55.92;99358.22;5012882;28;20057;-65
2022/06/10 07:49:39;;;;;;;20.48;11.27;;;;;;;25.69;56.03;99398.13;5014185;28;20030;-65
2022/06/10 07:52:06;;;;;;;14.90;10.48;;;;;;;25.68;56.16;99391.97;5013996;28;20048;-65
2022/06/10 07:54:36;;;;;;;14.35;10.68;;;;;;;25.64;55.03;99362.25;5001986;28;20041;-65
2022/06/10 07:57:03;;;;;;;8.98;8.15;;;;;;;25.49;53.34;99366.25;5001107;28;20034;-64
2022/06/10 07:59:30;;;;;;;9.88;8.88;;;;;;;25.78;53.65;99395.50;5014015;28;20026;-64
2022/06/10 08:01:55;;;;;;;11.73;9.32;;;;;;;25.91;54.96;99404.97;5014012;28;20145;-65
2022/06/10 08:04:21;;;;;;;13.32;12.02;;;;;;;25.89;53.54;99402.47;5014054;28;20149;-65
2022/06/10 08:06:47;;;;;;;9.60;8.80;;;;;;;26.00;53.07;99405.00;5014342;28;20042;-65
2022/06/10 08:09:14;;;;;;;9.93;8.50;;;;;;;26.00;52.59;99405.00;5013856;28;20066;-64
2022/06/10 08:11:40;;;;;;;8.45;7.75;;;;;;;25.93;50.00;99398.56;5013762;28;20022;-66
2022/06/10 08:14:06;;;;;;;8.68;7.78;;;;;;;26.07;52.17;99393.88;5013890;28;20042;-65
2022/06/10 08:16:34;;;;;;;9.02;8.13;;;;;;;26.17;51.09;99395.53;5013740;28;20037;-66
2022/06/10 08:18:59;;;;;;;8.40;7.13;;;;;;;26.33;50.71;99397.59;5012843;28;20096;-66
2022/06/10 08:24:10;;;;;;;8.48;6.68;;;;;;;26.40;48.43;99391.75;5011726;28;20030;-67
2022/06/10 08:26:36;;;;;;;8.05;6.78;;;;;;;26.49;48.91;99406.81;5013506;28;20022;-65
2022/06/10 08:29:03;;;;;;;7.70;6.95;;;;;;;26.39;47.86;99398.03;5013456;28;20033;-67
2022/06/10 08:31:29;;;;;;;7.78;7.07;;;;;;;26.38;47.74;99391.03;5009975;28;20022;-66
2022/06/10 08:33:55;;;;;;;7.93;6.53;;;;;;;26.48;47.44;99394.50;5013441;28;20022;-67
2022/06/10 08:36:21;;;;;;;6.63;5.90;;;;;;;26.56;46.31;99393.81;5003842;28;20022;-66
2022/06/10 08:38:46;;;;;;;7.03;5.82;;;;;;;26.54;45.73;99393.94;5013296;28;20486;-66
2022/06/10 08:41:50;;;;;;;7.60;6.25;;;;;;;26.49;45.34;99397.03;5013184;28;20045;-65
2022/06/10 08:44:38;;;;;;;6.65;5.95;;;;;;;26.57;46.16;99393.66;4995395;28;20498;-63
2022/06/10 08:47:22;;;;;;;8.40;5.78;;;;;;;26.58;45.80;99387.38;4973745;28;20124;-65
2022/06/10 08:50:23;;;;;;;6.85;6.25;;;;;;;26.52;45.55;99395.88;5012318;28;20132;-64
2022/06/10 08:53:32;;;;;;;8.80;6.18;;;;;;;26.42;43.55;99392.41;5010624;28;20487;-65
2022/06/10 08:56:10;;;;;;;11.40;5.85;;;;;;;26.47;44.20;99395.50;5010929;28;20038;-65
2022/06/10 08:58:57;;;;;;;7.10;6.40;;;;;;;26.45;44.70;99395.66;5013259;28;20034;-65
2022/06/10 09:01:24;;;;;;;6.90;6.18;;;;;;;26.69;45.50;99395.19;5011644;28;20029;-65
2022/06/10 09:04:30;;;;;;;6.95;5.97;;;;;;;26.74;44.93;99396.59;5013055;28;20101;-65
2022/06/10 09:07:01;;;;;;;74.28;12.27;;;;;;;26.86;43.52;99398.06;5012978;28;20443;-65
2022/06/10 09:09:29;;;;;;;7.13;5.68;;;;;;;26.97;44.11;99405.03;5013090;28;20471;-65
2022/06/10 09:12:11;;;;;;;6.70;5.38;;;;;;;26.97;44.93;99387.25;5012911;28;20562;-65
2022/06/10 09:14:36;;;;;;;6.57;5.93;;;;;;;26.92;43.78;99405.50;5012544;28;20025;-64
2022/06/10 09:17:34;;;;;;;6.45;5.85;;;;;;;26.98;44.30;99396.06;5012680;28;20042;-65
2022/06/10 09:20:12;;;;;;;6.78;5.85;;;;;;;27.00;41.75;99396.78;4989690;28;20121;-65
2022/06/10 09:23:02;;;;;;;6.50;5.88;;;;;;;26.89;42.47;99397.78;5012292;28;20488;-65
2022/06/10 09:25:48;;;;;;;7.35;5.53;;;;;;;26.97;42.31;99394.41;5011375;28;20054;-65
2022/06/10 09:28:13;;;;;;;6.65;6.05;;;;;;;26.85;41.52;99393.72;5012461;28;20033;-65
2022/06/10 09:30:56;;;;;;;6.60;4.95;;;;;;;26.78;39.90;99404.13;5011668;28;20038;-66
2022/06/10 09:33:34;;;;;;;6.75;5.40;;;;;;;26.97;41.80;99397.06;5012001;28;20188;-65
2022/06/10 09:35:59;;;;;;;5.88;5.28;;;;;;;27.08;42.49;99388.91;5010190;28;20030;-65
2022/06/10 09:38:44;;;;;;;7.20;6.10;;;;;;;26.77;41.08;99397.13;5010033;28;20486;-64
2022/06/10 09:41:28;;;;;;;7.38;5.80;;;;;;;26.86;42.14;99390.97;5011047;28;20088;-65
2022/06/10 09:44:35;;;;;;;6.80;5.65;;;;;;;26.79;40.89;99376.53;5009641;28;20100;-65
2022/06/10 09:47:18;;;;;;;8.13;5.88;;;;;;;26.61;41.19;99389.72;5009576;28;20038;-65
2022/06/10 09:50:28;;;;;;;6.07;5.47;;;;;;;26.62;40.85;99396.72;5011305;28;20026;-65
2022/06/10 09:53:01;;;;;;;5.70;5.20;;;;;;;26.55;41.96;99347.81;4981285;28;20050;-65
2022/06/10 09:55:40;;;;;;;6.57;5.60;;;;;;;26.44;41.19;99359.44;5011430;28;20030;-65
2022/06/10 09:58:24;;;;;;;5.22;4.65;;;;;;;26.71;39.41;99397.72;5012152;28;20030;-65
2022/06/10 10:01:10;;;;;;;6.03;5.40;;;;;;;26.65;40.33;99374.31;5012258;28;20029;-63
2022/06/10 10:04:02;;;;;;;6.93;5.22;;;;;;;26.84;40.47;99382.28;5012396;28;20065;-64
2022/06/10 10:06:41;;;;;;;;;;;;;;;26.91;41.66;99385.19;5012495;28;20045;-64
2022/06/10 10:09:07;;;;;;;6.47;5.07;;;;;;;26.83;40.47;99387.75;5011824;28;19918;-65
2022/06/10 10:11:38;;;;;;;5.88;5.18;;;;;;;26.94;41.07;99386.72;5009525;28;20422;-66
2022/06/10 10:14:15;;;;;;;5.07;4.68;;;;;;;27.01;40.71;99383.34;5010416;28;20022;-64
2022/06/10 10:17:03;;;;;;;5.03;4.53;;;;;;;26.96;39.76;99390.91;5011985;28;20533;-65
2022/06/10 10:19:37;;;;;;;6.90;5.30;;;;;;;26.95;41.06;99397.22;5012121;28;20041;-62
2022/06/10 10:22:16;;;;;;;8.48;5.32;;;;;;;26.73;40.26;99400.22;5012052;28;20026;-64
2022/06/10 10:24:44;;;;;;;8.07;4.95;;;;;;;27.00;41.87;99391.47;5007972;28;20018;-63
2022/06/10 10:27:21;;;;;;;5.18;4.75;;;;;;;26.70;39.54;99391.53;5000199;28;20068;-64
2022/06/10 10:29:52;;;;;;;6.22;5.38;;;;;;;26.63;40.25;99357.72;5012272;28;20034;-64
2022/06/10 10:32:22;;;;;;;5.43;4.93;;;;;;;26.93;41.72;99393.84;5012275;28;20092;-64
2022/06/10 10:34:53;;;;;;;9.07;5.07;;;;;;;26.83;39.94;99385.91;5010764;28;20058;-64
2022/06/10 10:37:29;;;;;;;6.57;4.85;;;;;;;26.80;41.33;99345.50;5011526;28;20030;-63
2022/06/10 10:40:01;;;;;;;6.80;5.60;;;;;;;26.75;40.79;99343.31;5006451;28;20037;-63
2022/06/10 10:42:41;;;;;;;5.85;5.22;;;;;;;27.06;40.48;99400.66;5010453;28;20498;-64
2022/06/10 10:45:24;;;;;;;8.40;5.18;;;;;;;27.07;40.49;99391.72;5015562;28;20391;-63
2022/06/10 10:47:58;;;;;;;9.48;5.55;;;;;;;26.95;41.91;99389.25;5015000;28;20026;-64
2022/06/10 10:50:38;;;;;;;5.72;5.10;;;;;;;27.04;41.05;99388.34;5015120;28;20041;-64
2022/06/10 10:53:20;;;;;;;6.68;5.10;;;;;;;26.94;41.71;99382.25;5014031;28;20033;-63
2022/06/10 10:55:51;;;;;;;6.70;4.93;;;;;;;26.87;40.10;99397.09;5006263;28;20439;-63
2022/06/10 10:58:23;;;;;;;5.30;4.80;;;;;;;26.61;40.12;99339.25;5014108;28;20049;-64
2022/06/10 11:01:06;;;;;;;5.30;4.80;;;;;;;26.95;40.54;99377.75;5015262;28;20055;-63
2022/06/10 11:03:37;;;;;;;6.78;5.10;;;;;;;27.09;41.33;99384.41;5009592;28;20034;-63
2022/06/10 11:06:18;;;;;;;7.47;4.75;;;;;;;26.80;40.50;99348.16;5014489;28;20079;-65
2022/06/10 11:08:58;;;;;;;5.25;4.85;;;;;;;26.82;41.04;99343.53;5014871;28;20113;-65
2022/06/10 11:11:34;;;;;;;5.53;5.03;;;;;;;27.06;40.19;99388.19;5015095;28;20030;-65
2022/06/10 11:14:22;;;;;;;5.32;4.82;;;;;;;27.15;40.41;99394.44;5015069;28;20092;-65
2022/06/10 11:17:00;;;;;;;5.68;5.18;;;;;;;27.25;40.96;99392.63;5014454;28;20497;-66
2022/06/10 11:19:37;;;;;;;5.13;4.70;;;;;;;27.31;40.93;99396.50;5013977;28;20084;-63
2022/06/10 11:22:25;;;;;;;5.43;4.95;;;;;;;27.08;41.02;99398.69;5012567;28;20030;-66
2022/06/10 11:25:02;;;;;;;6.25;4.95;;;;;;;27.08;41.10;99382.72;5013392;28;20025;-66
2022/06/10 11:27:36;;;;;;;6.13;4.63;;;;;;;26.91;40.88;99393.16;5012550;28;20431;-66
2022/06/10 11:30:10;;;;;;;5.28;4.43;;;;;;;26.48;39.90;99358.16;5014483;28;20052;-66
2022/06/10 11:32:38;;;;;;;6.03;5.15;;;;;;;26.83;40.12;99401.03;5014621;28;20029;-65
2022/06/10 11:35:24;;;;;;;9.82;5.32;;;;;;;26.72;39.93;99399.38;5014071;28;20030;-66
2022/06/10 11:37:57;;;;;;;5.28;4.88;;;;;;;26.70;39.65;99402.16;4999417;28;20142;-66
2022/06/10 11:40:27;;;;;;;6.18;4.63;;;;;;;26.50;39.30;99358.03;5011813;28;20056;-66
2022/06/10 11:43:04;;;;;;;7.50;4.70;;;;;;;26.80;40.75;99402.16;5010998;28;20391;-66
2022/06/10 11:45:41;;;;;;;6.05;4.65;;;;;;;26.88;42.44;99388.16;5013597;28;20057;-66
2022/06/10 11:48:28;;;;;;;4.32;3.95;;;;;;;27.03;41.45;99399.13;5011503;28;20038;-66
2022/06/10 11:51:15;;;;;;;4.72;3.92;;;;;;;26.89;40.03;99397.78;5011600;28;20486;-66
2022/06/10 11:54:05;;;;;;;6.88;4.40;;;;;;;26.72;40.12;99361.34;5011546;28;20399;-65
2022/06/10 12:00:00;;;;;;;4.72;3.97;;;;;;;26.48;40.15;99350.19;5011689;28;20026;-67
2022/06/10 12:02:32;;;;;;;6.53;4.40;;;;;;;26.84;39.69;99392.09;5029157;28;20104;-65
2022/06/10 12:05:13;;;;;;;6.85;4.13;;;;;;;26.66;39.27;99354.75;5013731;28;20053;-63